Aviation Digital Data Service (ADDS)

Output produced by METARs form (0506 UTC 20 October 2017)
found at http://aviationweather.gov/adds/metars/
 
KPWM 192330Z 2000/2024 22007KT P6SM BKN250 
     FM201300 30010KT P6SM SCT250